sensor_id;sensor_type;location;lat;lon;timestamp;temperature;humidity
3069;DHT22;1545;51.728;8.796;2023-06-22T00:01:17;18.30;98.80
3069;DHT22;1545;51.728;8.796;2023-06-22T00:03:43;18.20;98.80
3069;DHT22;1545;51.728;8.796;2023-06-22T00:06:08;18.20;98.80
3069;DHT22;1545;51.728;8.796;2023-06-22T00:08:34;18.20;98.80
3069;DHT22;1545;51.728;8.796;2023-06-22T00:11:00;18.20;98.80
3069;DHT22;1545;51.728;8.796;2023-06-22T00:13:26;18.20;98.80
3069;DHT22;1545;51.728;8.796;2023-06-22T00:15:52;18.20;98.80
3069;DHT22;1545;51.728;8.796;2023-06-22T00:18:17;18.20;98.80
3069;DHT22;1545;51.728;8.796;2023-06-22T00:20:43;18.30;98.80
3069;DHT22;1545;51.728;8.796;2023-06-22T00:23:10;18.30;98.80
3069;DHT22;1545;51.728;8.796;2023-06-22T00:25:37;18.40;98.80
3069;DHT22;1545;51.728;8.796;2023-06-22T00:28:05;18.40;98.80
3069;DHT22;1545;51.728;8.796;2023-06-22T00:30:32;18.50;98.80
3069;DHT22;1545;51.728;8.796;2023-06-22T00:32:58;18.60;98.80
3069;DHT22;1545;51.728;8.796;2023-06-22T00:35:24;18.60;98.80
3069;DHT22;1545;51.728;8.796;2023-06-22T00:37:56;18.70;98.80
3069;DHT22;1545;51.728;8.796;2023-06-22T00:40:28;18.50;98.80
3069;DHT22;1545;51.728;8.796;2023-06-22T00:42:54;18.40;98.80
3069;DHT22;1545;51.728;8.796;2023-06-22T00:45:22;18.40;98.80
3069;DHT22;1545;51.728;8.796;2023-06-22T00:47:52;18.30;98.80
3069;DHT22;1545;51.728;8.796;2023-06-22T00:50:22;18.40;98.80
3069;DHT22;1545;51.728;8.796;2023-06-22T00:52:52;18.50;98.80
3069;DHT22;1545;51.728;8.796;2023-06-22T00:55:19;18.60;98.80
3069;DHT22;1545;51.728;8.796;2023-06-22T00:57:46;18.60;98.80
3069;DHT22;1545;51.728;8.796;2023-06-22T01:00:13;18.40;98.80
3069;DHT22;1545;51.728;8.796;2023-06-22T01:02:40;18.50;98.80
3069;DHT22;1545;51.728;8.796;2023-06-22T01:05:07;18.50;98.80
3069;DHT22;1545;51.728;8.796;2023-06-22T01:07:42;18.50;98.80
3069;DHT22;1545;51.728;8.796;2023-06-22T01:10:16;18.50;98.80
3069;DHT22;1545;51.728;8.796;2023-06-22T01:12:53;18.60;98.80
3069;DHT22;1545;51.728;8.796;2023-06-22T01:15:46;18.50;98.80
3069;DHT22;1545;51.728;8.796;2023-06-22T01:18:16;18.60;98.80
3069;DHT22;1545;51.728;8.796;2023-06-22T01:20:43;18.70;98.80
3069;DHT22;1545;51.728;8.796;2023-06-22T01:23:26;18.70;98.80
3069;DHT22;1545;51.728;8.796;2023-06-22T01:26:21;18.80;98.80
3069;DHT22;1545;51.728;8.796;2023-06-22T01:28:53;18.90;98.80
3069;DHT22;1545;51.728;8.796;2023-06-22T01:31:25;18.90;98.80
3069;DHT22;1545;51.728;8.796;2023-06-22T01:33:54;18.70;98.80
3069;DHT22;1545;51.728;8.796;2023-06-22T01:36:22;18.80;98.80
3069;DHT22;1545;51.728;8.796;2023-06-22T01:38:49;18.90;98.80
3069;DHT22;1545;51.728;8.796;2023-06-22T01:41:16;19.00;98.80
3069;DHT22;1545;51.728;8.796;2023-06-22T01:43:42;19.00;98.80
3069;DHT22;1545;51.728;8.796;2023-06-22T01:46:09;18.90;98.80
3069;DHT22;1545;51.728;8.796;2023-06-22T01:48:35;19.00;98.80
3069;DHT22;1545;51.728;8.796;2023-06-22T01:51:01;19.10;98.80
3069;DHT22;1545;51.728;8.796;2023-06-22T01:53:28;19.10;98.80
3069;DHT22;1545;51.728;8.796;2023-06-22T01:55:54;19.10;98.80
3069;DHT22;1545;51.728;8.796;2023-06-22T01:58:25;19.10;98.80
3069;DHT22;1545;51.728;8.796;2023-06-22T02:01:00;19.10;98.80
3069;DHT22;1545;51.728;8.796;2023-06-22T02:03:43;19.20;98.80
3069;DHT22;1545;51.728;8.796;2023-06-22T02:06:25;19.20;98.80
3069;DHT22;1545;51.728;8.796;2023-06-22T02:08:57;19.10;98.80
3069;DHT22;1545;51.728;8.796;2023-06-22T02:11:26;19.10;98.80
3069;DHT22;1545;51.728;8.796;2023-06-22T02:13:53;19.20;98.80
3069;DHT22;1545;51.728;8.796;2023-06-22T02:16:19;19.30;98.80
3069;DHT22;1545;51.728;8.796;2023-06-22T02:18:48;19.30;98.80
3069;DHT22;1545;51.728;8.796;2023-06-22T02:21:18;19.30;98.60
3069;DHT22;1545;51.728;8.796;2023-06-22T02:23:43;19.40;98.70
3069;DHT22;1545;51.728;8.796;2023-06-22T02:26:09;19.40;98.70
3069;DHT22;1545;51.728;8.796;2023-06-22T02:28:35;19.20;98.80
3069;DHT22;1545;51.728;8.796;2023-06-22T02:31:00;19.20;98.80
3069;DHT22;1545;51.728;8.796;2023-06-22T02:33:26;19.30;98.80
3069;DHT22;1545;51.728;8.796;2023-06-22T02:35:52;19.40;98.80
3069;DHT22;1545;51.728;8.796;2023-06-22T02:38:20;19.40;98.60
3069;DHT22;1545;51.728;8.796;2023-06-22T02:40:46;19.40;98.70
3069;DHT22;1545;51.728;8.796;2023-06-22T02:43:11;19.40;98.80
3069;DHT22;1545;51.728;8.796;2023-06-22T02:45:37;19.40;98.80
3069;DHT22;1545;51.728;8.796;2023-06-22T02:48:03;19.50;98.70
3069;DHT22;1545;51.728;8.796;2023-06-22T02:50:28;19.50;98.50
3069;DHT22;1545;51.728;8.796;2023-06-22T02:52:54;19.60;98.40
3069;DHT22;1545;51.728;8.796;2023-06-22T02:55:19;19.60;98.40
3069;DHT22;1545;51.728;8.796;2023-06-22T02:57:45;19.70;98.00
3069;DHT22;1545;51.728;8.796;2023-06-22T03:00:13;19.60;97.80
3069;DHT22;1545;51.728;8.796;2023-06-22T03:02:46;19.60;97.90
3069;DHT22;1545;51.728;8.796;2023-06-22T03:05:12;19.60;97.90
3069;DHT22;1545;51.728;8.796;2023-06-22T03:07:43;19.60;97.80
3069;DHT22;1545;51.728;8.796;2023-06-22T03:10:09;19.60;97.90
3069;DHT22;1545;51.728;8.796;2023-06-22T03:12:36;19.60;97.70
3069;DHT22;1545;51.728;8.796;2023-06-22T03:15:02;19.50;98.20
3069;DHT22;1545;51.728;8.796;2023-06-22T03:17:27;19.50;98.20
3069;DHT22;1545;51.728;8.796;2023-06-22T03:19:53;19.50;98.20
3069;DHT22;1545;51.728;8.796;2023-06-22T03:22:18;19.50;98.30
3069;DHT22;1545;51.728;8.796;2023-06-22T03:24:44;19.50;98.50
3069;DHT22;1545;51.728;8.796;2023-06-22T03:27:09;19.50;98.30
3069;DHT22;1545;51.728;8.796;2023-06-22T03:29:35;19.50;98.30
3069;DHT22;1545;51.728;8.796;2023-06-22T03:32:00;19.60;98.20
3069;DHT22;1545;51.728;8.796;2023-06-22T03:34:26;19.60;98.10
3069;DHT22;1545;51.728;8.796;2023-06-22T03:36:51;19.60;98.20
3069;DHT22;1545;51.728;8.796;2023-06-22T03:39:17;19.70;98.20
3069;DHT22;1545;51.728;8.796;2023-06-22T03:41:42;19.70;98.30
3069;DHT22;1545;51.728;8.796;2023-06-22T03:44:08;19.80;98.30
3069;DHT22;1545;51.728;8.796;2023-06-22T03:46:37;19.80;98.30
3069;DHT22;1545;51.728;8.796;2023-06-22T03:49:03;19.90;98.20
3069;DHT22;1545;51.728;8.796;2023-06-22T03:51:29;20.00;98.00
3069;DHT22;1545;51.728;8.796;2023-06-22T03:53:54;20.10;97.60
3069;DHT22;1545;51.728;8.796;2023-06-22T03:56:20;20.10;97.10
3069;DHT22;1545;51.728;8.796;2023-06-22T03:58:46;20.10;97.00
3069;DHT22;1545;51.728;8.796;2023-06-22T04:01:11;20.20;96.90
3069;DHT22;1545;51.728;8.796;2023-06-22T04:03:38;20.30;96.50
3069;DHT22;1545;51.728;8.796;2023-06-22T04:06:03;20.30;96.20
3069;DHT22;1545;51.728;8.796;2023-06-22T04:08:29;20.30;96.20
3069;DHT22;1545;51.728;8.796;2023-06-22T04:10:55;20.30;96.10
3069;DHT22;1545;51.728;8.796;2023-06-22T04:13:21;20.30;96.00
3069;DHT22;1545;51.728;8.796;2023-06-22T04:15:46;20.40;95.70
3069;DHT22;1545;51.728;8.796;2023-06-22T04:18:12;20.40;95.40
3069;DHT22;1545;51.728;8.796;2023-06-22T04:20:38;20.40;95.20
3069;DHT22;1545;51.728;8.796;2023-06-22T04:23:04;20.50;94.80
3069;DHT22;1545;51.728;8.796;2023-06-22T04:25:29;20.50;94.40
3069;DHT22;1545;51.728;8.796;2023-06-22T04:27:55;20.60;94.40
3069;DHT22;1545;51.728;8.796;2023-06-22T04:30:21;20.70;94.00
3069;DHT22;1545;51.728;8.796;2023-06-22T04:32:46;20.70;93.80
3069;DHT22;1545;51.728;8.796;2023-06-22T04:35:21;20.50;94.00
3069;DHT22;1545;51.728;8.796;2023-06-22T04:37:47;20.30;94.80
3069;DHT22;1545;51.728;8.796;2023-06-22T04:40:15;20.30;95.20
3069;DHT22;1545;51.728;8.796;2023-06-22T04:42:40;20.50;95.00
3069;DHT22;1545;51.728;8.796;2023-06-22T04:45:08;20.60;94.50
3069;DHT22;1545;51.728;8.796;2023-06-22T04:47:34;20.60;94.10
3069;DHT22;1545;51.728;8.796;2023-06-22T04:50:04;20.60;94.20
3069;DHT22;1545;51.728;8.796;2023-06-22T04:52:31;20.60;94.20
3069;DHT22;1545;51.728;8.796;2023-06-22T04:54:56;20.70;94.10
3069;DHT22;1545;51.728;8.796;2023-06-22T04:57:24;20.70;94.20
3069;DHT22;1545;51.728;8.796;2023-06-22T04:59:57;20.80;94.00
3069;DHT22;1545;51.728;8.796;2023-06-22T05:02:23;20.90;93.70
3069;DHT22;1545;51.728;8.796;2023-06-22T05:04:55;21.00;93.20
3069;DHT22;1545;51.728;8.796;2023-06-22T05:07:22;21.10;92.80
3069;DHT22;1545;51.728;8.796;2023-06-22T05:09:50;21.00;92.90
3069;DHT22;1545;51.728;8.796;2023-06-22T05:12:16;21.00;93.90
3069;DHT22;1545;51.728;8.796;2023-06-22T05:14:41;21.10;93.90
3069;DHT22;1545;51.728;8.796;2023-06-22T05:17:07;21.30;93.90
3069;DHT22;1545;51.728;8.796;2023-06-22T05:19:38;21.40;93.10
3069;DHT22;1545;51.728;8.796;2023-06-22T05:22:04;21.60;92.00
3069;DHT22;1545;51.728;8.796;2023-06-22T05:24:31;21.70;91.40
3069;DHT22;1545;51.728;8.796;2023-06-22T05:26:57;21.80;90.80
3069;DHT22;1545;51.728;8.796;2023-06-22T05:29:22;21.90;90.10
3069;DHT22;1545;51.728;8.796;2023-06-22T05:31:48;22.00;89.50
3069;DHT22;1545;51.728;8.796;2023-06-22T05:34:14;22.10;88.90
3069;DHT22;1545;51.728;8.796;2023-06-22T05:36:40;22.20;88.70
3069;DHT22;1545;51.728;8.796;2023-06-22T05:39:13;22.30;88.40
3069;DHT22;1545;51.728;8.796;2023-06-22T05:41:41;22.30;88.30
3069;DHT22;1545;51.728;8.796;2023-06-22T05:44:08;22.40;88.10
3069;DHT22;1545;51.728;8.796;2023-06-22T05:46:34;22.40;88.10
3069;DHT22;1545;51.728;8.796;2023-06-22T05:48:59;22.50;87.50
3069;DHT22;1545;51.728;8.796;2023-06-22T05:51:25;22.60;87.10
3069;DHT22;1545;51.728;8.796;2023-06-22T05:53:50;22.70;86.60
3069;DHT22;1545;51.728;8.796;2023-06-22T05:56:16;22.80;86.20
3069;DHT22;1545;51.728;8.796;2023-06-22T05:58:42;22.80;86.20
3069;DHT22;1545;51.728;8.796;2023-06-22T06:01:07;22.80;85.40
3069;DHT22;1545;51.728;8.796;2023-06-22T06:03:33;22.80;85.80
3069;DHT22;1545;51.728;8.796;2023-06-22T06:05:58;22.90;85.70
3069;DHT22;1545;51.728;8.796;2023-06-22T06:08:24;22.90;85.00
3069;DHT22;1545;51.728;8.796;2023-06-22T06:10:50;22.80;85.20
3069;DHT22;1545;51.728;8.796;2023-06-22T06:13:18;22.80;84.70
3069;DHT22;1545;51.728;8.796;2023-06-22T06:15:43;22.80;84.90
3069;DHT22;1545;51.728;8.796;2023-06-22T06:18:09;22.70;85.10
3069;DHT22;1545;51.728;8.796;2023-06-22T06:20:34;22.50;86.10
3069;DHT22;1545;51.728;8.796;2023-06-22T06:23:00;22.40;86.90
3069;DHT22;1545;51.728;8.796;2023-06-22T06:25:27;22.30;87.40
3069;DHT22;1545;51.728;8.796;2023-06-22T06:27:53;22.10;88.80
3069;DHT22;1545;51.728;8.796;2023-06-22T06:30:20;22.00;90.10
3069;DHT22;1545;51.728;8.796;2023-06-22T06:32:47;22.00;91.30
3069;DHT22;1545;51.728;8.796;2023-06-22T06:35:13;22.00;91.40
3069;DHT22;1545;51.728;8.796;2023-06-22T06:37:41;22.00;91.60
3069;DHT22;1545;51.728;8.796;2023-06-22T06:40:09;22.00;91.70
3069;DHT22;1545;51.728;8.796;2023-06-22T06:42:37;21.90;92.00
3069;DHT22;1545;51.728;8.796;2023-06-22T06:45:04;22.00;91.60
3069;DHT22;1545;51.728;8.796;2023-06-22T06:47:30;22.00;92.00
3069;DHT22;1545;51.728;8.796;2023-06-22T06:49:56;22.00;92.50
3069;DHT22;1545;51.728;8.796;2023-06-22T06:52:21;22.00;93.10
3069;DHT22;1545;51.728;8.796;2023-06-22T06:54:47;22.00;93.20
3069;DHT22;1545;51.728;8.796;2023-06-22T06:57:12;22.00;93.90
3069;DHT22;1545;51.728;8.796;2023-06-22T06:59:39;22.10;94.50
3069;DHT22;1545;51.728;8.796;2023-06-22T07:02:04;22.10;94.60
3069;DHT22;1545;51.728;8.796;2023-06-22T07:04:30;22.20;94.50
3069;DHT22;1545;51.728;8.796;2023-06-22T07:06:55;22.30;94.50
3069;DHT22;1545;51.728;8.796;2023-06-22T07:09:21;22.40;94.20
3069;DHT22;1545;51.728;8.796;2023-06-22T07:11:46;22.40;93.90
3069;DHT22;1545;51.728;8.796;2023-06-22T07:14:12;22.60;93.90
3069;DHT22;1545;51.728;8.796;2023-06-22T07:16:37;22.80;93.70
3069;DHT22;1545;51.728;8.796;2023-06-22T07:19:03;22.90;93.10
3069;DHT22;1545;51.728;8.796;2023-06-22T07:21:28;23.00;91.90
3069;DHT22;1545;51.728;8.796;2023-06-22T07:23:54;23.20;90.90
3069;DHT22;1545;51.728;8.796;2023-06-22T07:26:20;23.30;89.30
3069;DHT22;1545;51.728;8.796;2023-06-22T07:28:45;23.30;89.50
3069;DHT22;1545;51.728;8.796;2023-06-22T07:31:11;23.20;88.60
3069;DHT22;1545;51.728;8.796;2023-06-22T07:33:36;22.90;89.40
3069;DHT22;1545;51.728;8.796;2023-06-22T07:36:02;22.90;91.10
3069;DHT22;1545;51.728;8.796;2023-06-22T07:38:33;22.70;91.60
3069;DHT22;1545;51.728;8.796;2023-06-22T07:40:58;22.70;92.40
3069;DHT22;1545;51.728;8.796;2023-06-22T07:43:23;22.70;92.00
3069;DHT22;1545;51.728;8.796;2023-06-22T07:45:49;22.30;92.60
3069;DHT22;1545;51.728;8.796;2023-06-22T07:48:21;22.40;93.60
3069;DHT22;1545;51.728;8.796;2023-06-22T07:50:47;22.50;93.60
3069;DHT22;1545;51.728;8.796;2023-06-22T07:53:13;22.50;94.00
3069;DHT22;1545;51.728;8.796;2023-06-22T07:55:38;22.60;93.80
3069;DHT22;1545;51.728;8.796;2023-06-22T07:58:04;22.70;93.40
3069;DHT22;1545;51.728;8.796;2023-06-22T08:00:29;22.80;93.80
3069;DHT22;1545;51.728;8.796;2023-06-22T08:02:55;22.90;94.00
3069;DHT22;1545;51.728;8.796;2023-06-22T08:05:21;22.90;92.00
3069;DHT22;1545;51.728;8.796;2023-06-22T08:07:47;22.90;92.10
3069;DHT22;1545;51.728;8.796;2023-06-22T08:10:13;22.80;91.80
3069;DHT22;1545;51.728;8.796;2023-06-22T08:12:39;22.60;90.30
3069;DHT22;1545;51.728;8.796;2023-06-22T08:15:05;22.60;92.80
3069;DHT22;1545;51.728;8.796;2023-06-22T08:17:31;22.70;94.10
3069;DHT22;1545;51.728;8.796;2023-06-22T08:19:57;22.90;93.20
3069;DHT22;1545;51.728;8.796;2023-06-22T08:22:24;23.20;92.90
3069;DHT22;1545;51.728;8.796;2023-06-22T08:24:53;23.30;91.90
3069;DHT22;1545;51.728;8.796;2023-06-22T08:27:18;23.90;90.50
3069;DHT22;1545;51.728;8.796;2023-06-22T08:29:46;24.30;89.30
3069;DHT22;1545;51.728;8.796;2023-06-22T08:32:12;24.80;87.10
3069;DHT22;1545;51.728;8.796;2023-06-22T08:34:38;25.40;84.70
3069;DHT22;1545;51.728;8.796;2023-06-22T08:37:08;26.10;82.80
3069;DHT22;1545;51.728;8.796;2023-06-22T08:39:34;26.80;79.50
3069;DHT22;1545;51.728;8.796;2023-06-22T08:41:59;27.70;78.30
3069;DHT22;1545;51.728;8.796;2023-06-22T08:44:25;28.40;75.20
3069;DHT22;1545;51.728;8.796;2023-06-22T08:46:50;29.70;74.40
3069;DHT22;1545;51.728;8.796;2023-06-22T08:49:16;30.70;72.60
3069;DHT22;1545;51.728;8.796;2023-06-22T08:51:41;30.50;70.70
3069;DHT22;1545;51.728;8.796;2023-06-22T08:54:07;30.90;71.20
3069;DHT22;1545;51.728;8.796;2023-06-22T08:56:32;32.20;68.50
3069;DHT22;1545;51.728;8.796;2023-06-22T08:58:58;32.90;65.80
3069;DHT22;1545;51.728;8.796;2023-06-22T09:01:23;33.50;64.40
3069;DHT22;1545;51.728;8.796;2023-06-22T09:03:49;33.90;63.20
3069;DHT22;1545;51.728;8.796;2023-06-22T09:06:21;34.20;61.30
3069;DHT22;1545;51.728;8.796;2023-06-22T09:08:47;34.00;61.60
3069;DHT22;1545;51.728;8.796;2023-06-22T09:11:12;34.20;60.60
3069;DHT22;1545;51.728;8.796;2023-06-22T09:13:38;34.80;58.70
3069;DHT22;1545;51.728;8.796;2023-06-22T09:16:04;34.90;55.60
3069;DHT22;1545;51.728;8.796;2023-06-22T09:18:29;34.60;56.30
3069;DHT22;1545;51.728;8.796;2023-06-22T09:20:55;34.00;58.90
3069;DHT22;1545;51.728;8.796;2023-06-22T09:23:20;34.20;57.00
3069;DHT22;1545;51.728;8.796;2023-06-22T09:25:46;34.20;57.00
3069;DHT22;1545;51.728;8.796;2023-06-22T09:28:13;34.40;55.60
3069;DHT22;1545;51.728;8.796;2023-06-22T09:30:39;33.90;56.20
3069;DHT22;1545;51.728;8.796;2023-06-22T09:33:04;33.40;58.00
3069;DHT22;1545;51.728;8.796;2023-06-22T09:35:30;33.70;58.10
3069;DHT22;1545;51.728;8.796;2023-06-22T09:37:56;33.60;57.10
3069;DHT22;1545;51.728;8.796;2023-06-22T09:40:21;33.10;58.80
3069;DHT22;1545;51.728;8.796;2023-06-22T09:42:47;33.30;59.70
3069;DHT22;1545;51.728;8.796;2023-06-22T09:45:12;32.60;60.60
3069;DHT22;1545;51.728;8.796;2023-06-22T09:47:38;32.00;61.00
3069;DHT22;1545;51.728;8.796;2023-06-22T09:50:04;32.30;59.10
3069;DHT22;1545;51.728;8.796;2023-06-22T09:52:30;31.20;61.70
3069;DHT22;1545;51.728;8.796;2023-06-22T09:54:55;30.70;62.60
3069;DHT22;1545;51.728;8.796;2023-06-22T09:57:21;31.20;63.30
3069;DHT22;1545;51.728;8.796;2023-06-22T09:59:46;31.50;61.70
3069;DHT22;1545;51.728;8.796;2023-06-22T10:02:12;31.00;62.60
3069;DHT22;1545;51.728;8.796;2023-06-22T10:04:38;29.60;65.40
3069;DHT22;1545;51.728;8.796;2023-06-22T10:07:05;29.80;66.10
3069;DHT22;1545;51.728;8.796;2023-06-22T10:09:31;29.90;65.10
3069;DHT22;1545;51.728;8.796;2023-06-22T10:11:56;30.00;65.30
3069;DHT22;1545;51.728;8.796;2023-06-22T10:14:22;30.00;65.30
3069;DHT22;1545;51.728;8.796;2023-06-22T10:16:48;29.20;66.60
3069;DHT22;1545;51.728;8.796;2023-06-22T10:19:13;28.90;68.40
3069;DHT22;1545;51.728;8.796;2023-06-22T10:21:39;28.70;68.60
3069;DHT22;1545;51.728;8.796;2023-06-22T10:24:05;28.70;68.10
3069;DHT22;1545;51.728;8.796;2023-06-22T10:26:35;28.90;68.20
3069;DHT22;1545;51.728;8.796;2023-06-22T10:29:01;28.90;67.50
3069;DHT22;1545;51.728;8.796;2023-06-22T10:31:27;28.90;67.70
3069;DHT22;1545;51.728;8.796;2023-06-22T10:33:54;29.20;67.70
3069;DHT22;1545;51.728;8.796;2023-06-22T10:36:20;29.30;67.80
3069;DHT22;1545;51.728;8.796;2023-06-22T10:38:45;29.70;65.90
3069;DHT22;1545;51.728;8.796;2023-06-22T10:41:12;29.70;66.80
3069;DHT22;1545;51.728;8.796;2023-06-22T10:43:38;29.40;66.90
3069;DHT22;1545;51.728;8.796;2023-06-22T10:46:03;29.00;67.60
3069;DHT22;1545;51.728;8.796;2023-06-22T10:48:29;29.40;67.70
3069;DHT22;1545;51.728;8.796;2023-06-22T10:50:54;29.00;67.10
3069;DHT22;1545;51.728;8.796;2023-06-22T10:53:20;29.00;68.70
3069;DHT22;1545;51.728;8.796;2023-06-22T10:55:45;29.40;67.00
3069;DHT22;1545;51.728;8.796;2023-06-22T10:58:11;29.60;66.10
3069;DHT22;1545;51.728;8.796;2023-06-22T11:00:37;29.70;66.50
3069;DHT22;1545;51.728;8.796;2023-06-22T11:03:02;29.70;66.20
3069;DHT22;1545;51.728;8.796;2023-06-22T11:05:28;29.60;65.10
3069;DHT22;1545;51.728;8.796;2023-06-22T11:07:53;29.20;67.00
3069;DHT22;1545;51.728;8.796;2023-06-22T11:10:19;29.30;66.30
3069;DHT22;1545;51.728;8.796;2023-06-22T11:12:44;28.90;67.50
3069;DHT22;1545;51.728;8.796;2023-06-22T11:15:10;28.80;69.10
3069;DHT22;1545;51.728;8.796;2023-06-22T11:17:35;28.90;69.40
3069;DHT22;1545;51.728;8.796;2023-06-22T11:20:01;28.90;70.00
3069;DHT22;1545;51.728;8.796;2023-06-22T11:22:31;29.20;68.90
3069;DHT22;1545;51.728;8.796;2023-06-22T11:24:58;29.60;66.00
3069;DHT22;1545;51.728;8.796;2023-06-22T11:27:24;30.20;65.50
3069;DHT22;1545;51.728;8.796;2023-06-22T11:29:49;30.80;65.00
3069;DHT22;1545;51.728;8.796;2023-06-22T11:32:15;31.20;61.90
3069;DHT22;1545;51.728;8.796;2023-06-22T11:34:41;31.00;61.60
3069;DHT22;1545;51.728;8.796;2023-06-22T11:37:06;30.40;62.80
3069;DHT22;1545;51.728;8.796;2023-06-22T11:39:32;30.50;63.30
3069;DHT22;1545;51.728;8.796;2023-06-22T11:41:57;30.30;62.50
3069;DHT22;1545;51.728;8.796;2023-06-22T11:44:23;29.60;65.10
3069;DHT22;1545;51.728;8.796;2023-06-22T11:46:48;29.70;65.90
3069;DHT22;1545;51.728;8.796;2023-06-22T11:49:14;29.80;64.60
3069;DHT22;1545;51.728;8.796;2023-06-22T11:51:39;30.20;65.10
3069;DHT22;1545;51.728;8.796;2023-06-22T11:54:04;30.80;64.20
3069;DHT22;1545;51.728;8.796;2023-06-22T11:56:30;30.90;62.30
3069;DHT22;1545;51.728;8.796;2023-06-22T11:58:55;30.20;65.40
3069;DHT22;1545;51.728;8.796;2023-06-22T12:01:21;30.10;64.90
3069;DHT22;1545;51.728;8.796;2023-06-22T12:03:47;29.90;66.00
3069;DHT22;1545;51.728;8.796;2023-06-22T12:06:13;30.30;64.10
3069;DHT22;1545;51.728;8.796;2023-06-22T12:08:39;30.40;64.40
3069;DHT22;1545;51.728;8.796;2023-06-22T12:11:04;29.90;66.00
3069;DHT22;1545;51.728;8.796;2023-06-22T12:13:30;29.50;67.20
3069;DHT22;1545;51.728;8.796;2023-06-22T12:15:55;28.60;70.30
3069;DHT22;1545;51.728;8.796;2023-06-22T12:18:21;28.40;72.20
3069;DHT22;1545;51.728;8.796;2023-06-22T12:20:46;28.20;73.10
3069;DHT22;1545;51.728;8.796;2023-06-22T12:23:12;28.60;72.30
3069;DHT22;1545;51.728;8.796;2023-06-22T12:25:38;28.60;72.30
3069;DHT22;1545;51.728;8.796;2023-06-22T12:28:03;28.80;71.70
3069;DHT22;1545;51.728;8.796;2023-06-22T12:30:30;28.80;71.40
3069;DHT22;1545;51.728;8.796;2023-06-22T12:32:55;28.30;72.80
3069;DHT22;1545;51.728;8.796;2023-06-22T12:35:21;28.20;74.50
3069;DHT22;1545;51.728;8.796;2023-06-22T12:37:46;27.80;76.30
3069;DHT22;1545;51.728;8.796;2023-06-22T12:40:12;27.40;77.00
3069;DHT22;1545;51.728;8.796;2023-06-22T12:42:38;27.10;78.90
3069;DHT22;1545;51.728;8.796;2023-06-22T12:45:04;26.60;80.00
3069;DHT22;1545;51.728;8.796;2023-06-22T12:47:29;26.30;84.00
3069;DHT22;1545;51.728;8.796;2023-06-22T12:49:55;26.00;84.30
3069;DHT22;1545;51.728;8.796;2023-06-22T12:52:20;25.70;87.50
3069;DHT22;1545;51.728;8.796;2023-06-22T12:54:46;25.40;88.00
3069;DHT22;1545;51.728;8.796;2023-06-22T12:57:11;25.20;90.50
3069;DHT22;1545;51.728;8.796;2023-06-22T12:59:37;24.80;94.10
3069;DHT22;1545;51.728;8.796;2023-06-22T13:02:03;24.50;96.80
3069;DHT22;1545;51.728;8.796;2023-06-22T13:04:28;24.10;95.30
3069;DHT22;1545;51.728;8.796;2023-06-22T13:06:54;23.70;97.10
3069;DHT22;1545;51.728;8.796;2023-06-22T13:09:19;23.70;98.70
3069;DHT22;1545;51.728;8.796;2023-06-22T13:11:45;23.70;98.50
3069;DHT22;1545;51.728;8.796;2023-06-22T13:14:10;23.70;98.30
3069;DHT22;1545;51.728;8.796;2023-06-22T13:16:36;23.70;98.80
3069;DHT22;1545;51.728;8.796;2023-06-22T13:19:02;23.80;98.80
3069;DHT22;1545;51.728;8.796;2023-06-22T13:21:27;23.80;98.80
3069;DHT22;1545;51.728;8.796;2023-06-22T13:23:53;23.90;98.80
3069;DHT22;1545;51.728;8.796;2023-06-22T13:26:21;23.90;98.80
3069;DHT22;1545;51.728;8.796;2023-06-22T13:28:47;23.90;98.00
3069;DHT22;1545;51.728;8.796;2023-06-22T13:31:12;23.90;97.00
3069;DHT22;1545;51.728;8.796;2023-06-22T13:33:38;23.90;97.00
3069;DHT22;1545;51.728;8.796;2023-06-22T13:36:04;23.80;96.70
3069;DHT22;1545;51.728;8.796;2023-06-22T13:38:31;23.60;97.20
3069;DHT22;1545;51.728;8.796;2023-06-22T13:40:57;23.50;98.20
3069;DHT22;1545;51.728;8.796;2023-06-22T13:43:26;23.20;98.50
3069;DHT22;1545;51.728;8.796;2023-06-22T13:45:52;23.00;98.80
3069;DHT22;1545;51.728;8.796;2023-06-22T13:48:17;22.60;98.80
3069;DHT22;1545;51.728;8.796;2023-06-22T13:50:43;22.00;98.80
3069;DHT22;1545;51.728;8.796;2023-06-22T13:53:09;21.60;98.80
3069;DHT22;1545;51.728;8.796;2023-06-22T13:55:34;21.10;98.80
3069;DHT22;1545;51.728;8.796;2023-06-22T13:58:00;20.90;98.80
3069;DHT22;1545;51.728;8.796;2023-06-22T14:00:25;20.90;98.80
3069;DHT22;1545;51.728;8.796;2023-06-22T14:02:51;20.90;98.80
3069;DHT22;1545;51.728;8.796;2023-06-22T14:05:16;20.80;98.80
3069;DHT22;1545;51.728;8.796;2023-06-22T14:07:42;21.00;98.80
3069;DHT22;1545;51.728;8.796;2023-06-22T14:10:07;21.00;98.80
3069;DHT22;1545;51.728;8.796;2023-06-22T14:12:33;20.90;98.80
3069;DHT22;1545;51.728;8.796;2023-06-22T14:14:59;21.00;98.80
3069;DHT22;1545;51.728;8.796;2023-06-22T14:17:25;21.10;98.80
3069;DHT22;1545;51.728;8.796;2023-06-22T14:19:51;21.20;98.80
3069;DHT22;1545;51.728;8.796;2023-06-22T14:22:21;21.20;98.80
3069;DHT22;1545;51.728;8.796;2023-06-22T14:24:48;21.20;98.80
3069;DHT22;1545;51.728;8.796;2023-06-22T14:27:14;20.90;98.80
3069;DHT22;1545;51.728;8.796;2023-06-22T14:29:39;21.00;98.80
3069;DHT22;1545;51.728;8.796;2023-06-22T14:32:05;20.70;98.80
3069;DHT22;1545;51.728;8.796;2023-06-22T14:34:32;20.70;98.80
3069;DHT22;1545;51.728;8.796;2023-06-22T14:36:57;20.70;98.80
3069;DHT22;1545;51.728;8.796;2023-06-22T14:39:23;20.70;98.80
3069;DHT22;1545;51.728;8.796;2023-06-22T14:41:49;20.60;98.80
3069;DHT22;1545;51.728;8.796;2023-06-22T14:44:15;20.60;98.80
3069;DHT22;1545;51.728;8.796;2023-06-22T14:46:40;20.40;98.80
3069;DHT22;1545;51.728;8.796;2023-06-22T14:49:05;20.20;98.80
3069;DHT22;1545;51.728;8.796;2023-06-22T14:51:31;20.20;98.80
3069;DHT22;1545;51.728;8.796;2023-06-22T14:53:56;20.30;98.80
3069;DHT22;1545;51.728;8.796;2023-06-22T14:56:22;20.10;98.80
3069;DHT22;1545;51.728;8.796;2023-06-22T14:58:47;20.10;98.80
3069;DHT22;1545;51.728;8.796;2023-06-22T15:01:14;19.90;98.80
3069;DHT22;1545;51.728;8.796;2023-06-22T15:03:39;19.80;98.80
3069;DHT22;1545;51.728;8.796;2023-06-22T15:06:05;19.70;98.80
3069;DHT22;1545;51.728;8.796;2023-06-22T15:08:31;19.80;98.80
3069;DHT22;1545;51.728;8.796;2023-06-22T15:10:59;19.90;98.80
3069;DHT22;1545;51.728;8.796;2023-06-22T15:13:30;20.00;98.80
3069;DHT22;1545;51.728;8.796;2023-06-22T15:15:59;20.10;98.80
3069;DHT22;1545;51.728;8.796;2023-06-22T15:18:24;20.10;98.80
3069;DHT22;1545;51.728;8.796;2023-06-22T15:20:50;20.20;98.80
3069;DHT22;1545;51.728;8.796;2023-06-22T15:23:15;20.30;98.80
3069;DHT22;1545;51.728;8.796;2023-06-22T15:25:41;20.30;98.80
3069;DHT22;1545;51.728;8.796;2023-06-22T15:28:07;20.40;98.80
3069;DHT22;1545;51.728;8.796;2023-06-22T15:30:32;20.70;98.80
3069;DHT22;1545;51.728;8.796;2023-06-22T15:32:58;20.90;98.80
3069;DHT22;1545;51.728;8.796;2023-06-22T15:35:23;21.00;98.80
3069;DHT22;1545;51.728;8.796;2023-06-22T15:37:49;21.20;98.80
3069;DHT22;1545;51.728;8.796;2023-06-22T15:40:16;21.30;98.80
3069;DHT22;1545;51.728;8.796;2023-06-22T15:42:42;21.40;98.80
3069;DHT22;1545;51.728;8.796;2023-06-22T15:45:08;21.30;98.80
3069;DHT22;1545;51.728;8.796;2023-06-22T15:47:34;21.30;98.80
3069;DHT22;1545;51.728;8.796;2023-06-22T15:49:59;21.60;98.80
3069;DHT22;1545;51.728;8.796;2023-06-22T15:52:25;21.70;98.80
3069;DHT22;1545;51.728;8.796;2023-06-22T15:54:50;21.40;98.80
3069;DHT22;1545;51.728;8.796;2023-06-22T15:57:19;21.70;98.80